createdAt,value
2023-04-25T00:00:01.776Z,98.1
2023-04-25T00:05:01.987Z,115.2
2023-04-25T00:15:06.680Z,146.6
2023-04-25T00:20:01.363Z,180.7
2023-04-25T00:25:01.593Z,187.0
2023-04-25T00:30:06.331Z,193.3
2023-04-25T00:35:01.472Z,188.1
2023-04-25T00:40:06.318Z,191.1
2023-04-25T00:45:02.177Z,155.0
2023-04-25T00:50:01.309Z,133.4
2023-04-25T00:55:01.413Z,95.8
2023-04-25T01:00:01.252Z,85.6
2023-04-25T01:05:01.578Z,45.6
2023-04-25T01:10:01.345Z,37.6
2023-04-25T01:15:06.473Z,35.9
2023-04-25T01:20:01.310Z,38.8
2023-04-25T01:25:06.438Z,23.5
2023-04-25T01:30:01.372Z,12.8
2023-04-25T01:35:02.420Z,13.4
2023-04-25T01:40:01.300Z,18.5
2023-04-25T01:45:01.436Z,16.6
2023-04-25T01:50:01.230Z,16.6
2023-04-25T02:00:01.486Z,33.0
2023-04-25T02:05:01.674Z,47.3
2023-04-25T02:10:01.223Z,51.4
2023-04-25T02:15:02.387Z,56.7
2023-04-25T02:20:01.319Z,62.1
2023-04-25T02:25:01.420Z,58.6
2023-04-25T02:30:01.320Z,51.9
2023-04-25T02:35:01.318Z,36.5
2023-04-25T02:40:01.397Z,35.8
2023-04-25T02:45:01.485Z,31.2
2023-04-25T02:50:01.333Z,19.0
2023-04-25T02:55:06.498Z,11.2
2023-04-25T03:00:02.470Z,10.8
2023-04-25T03:05:01.441Z,7.9
2023-04-25T03:10:02.438Z,10.5
2023-04-25T03:20:01.436Z,10.0
2023-04-25T03:25:01.490Z,9.1
2023-04-25T03:30:01.310Z,10.8
2023-04-25T03:35:06.459Z,8.1
2023-04-25T03:40:01.399Z,5.8
2023-04-25T03:45:01.869Z,9.0
2023-04-25T03:50:06.434Z,8.0
2023-04-25T03:55:01.540Z,4.6
2023-04-25T04:00:01.433Z,4.6
2023-04-25T04:10:01.608Z,3.4
2023-04-25T04:25:01.749Z,4.5
2023-04-25T04:30:01.352Z,7.7
2023-04-25T04:40:02.440Z,8.6
2023-04-25T04:45:01.515Z,8.3
2023-04-25T07:05:01.461Z,3.4
2023-04-25T07:10:01.310Z,3.8
2023-04-25T07:30:01.550Z,5.7
2023-04-25T07:35:01.432Z,2.4
2023-04-25T07:40:01.316Z,2.0
2023-04-25T09:10:01.630Z,1.7
2023-04-25T09:15:01.347Z,10.9
2023-04-25T09:20:01.305Z,17.8
2023-04-25T09:25:01.432Z,19.8
2023-04-25T09:30:01.328Z,20.8
2023-04-25T09:40:01.786Z,19.4
2023-04-25T09:45:01.372Z,14.6
2023-04-25T09:50:01.416Z,7.7
2023-04-25T09:55:01.470Z,5.8
2023-04-25T10:00:01.356Z,4.7
2023-04-25T10:05:02.540Z,4.6
2023-04-25T10:10:01.389Z,1.9
2023-04-25T10:15:01.478Z,23.0
2023-04-25T10:25:06.844Z,26.9
2023-04-25T10:30:01.365Z,37.6
2023-04-25T10:35:01.540Z,51.9
2023-04-25T10:55:01.212Z,59.2
2023-04-25T11:00:01.093Z,30.4
2023-04-25T11:05:01.615Z,23.6
2023-04-25T11:10:01.033Z,17.7
2023-04-25T11:15:01.230Z,14.2
2023-04-25T11:45:01.243Z,5.8
2023-04-25T11:50:00.987Z,6.0
2023-04-25T11:55:01.057Z,8.4
2023-04-25T12:00:00.919Z,16.2
2023-04-25T12:10:01.022Z,29.0
2023-04-25T12:15:01.132Z,32.3
2023-04-25T12:45:01.157Z,12.6
2023-04-25T12:50:02.258Z,9.5
2023-04-25T12:55:05.999Z,7.6
2023-04-25T13:00:00.929Z,6.2
2023-04-25T13:15:01.094Z,10.0
2023-04-25T13:20:02.007Z,19.7
2023-04-25T13:25:00.981Z,32.0
2023-04-25T13:30:00.917Z,41.2
2023-04-25T13:35:06.106Z,51.4
2023-04-25T13:45:00.971Z,43.0
2023-04-25T13:50:00.885Z,32.2
2023-04-25T13:55:00.962Z,28.2
2023-04-25T14:00:00.874Z,18.0
2023-04-25T14:05:01.113Z,8.0
2023-04-25T14:10:06.900Z,6.7
2023-04-25T14:15:00.998Z,5.2
2023-04-25T15:20:01.355Z,11.3
2023-04-25T15:25:00.975Z,15.6
2023-04-25T15:30:00.965Z,29.4
2023-04-25T15:35:00.958Z,39.2
2023-04-25T15:40:00.991Z,44.6
2023-04-25T15:45:01.105Z,42.5
2023-04-25T15:50:01.040Z,41.8
2023-04-25T15:55:00.964Z,35.7
2023-04-25T16:00:00.929Z,32.1
2023-04-25T16:05:01.894Z,31.4
2023-04-25T16:10:00.937Z,22.2
2023-04-25T16:15:00.990Z,18.7
2023-04-25T16:20:00.956Z,11.2
2023-04-25T16:25:02.009Z,4.9
2023-04-25T17:10:01.102Z,9.0
2023-04-25T17:15:01.093Z,15.2
2023-04-25T17:20:00.917Z,14.8
2023-04-25T17:25:01.086Z,15.1
2023-04-25T17:30:01.089Z,17.0
2023-04-25T17:35:01.031Z,9.8
2023-04-25T17:50:02.036Z,3.4
2023-04-25T17:55:01.073Z,7.8
2023-04-25T18:00:00.985Z,6.7
2023-04-25T18:10:01.186Z,6.6
2023-04-25T18:15:01.123Z,6.3
2023-04-25T18:50:00.908Z,12.3
2023-04-25T19:05:01.118Z,10.5
